sensor_id;sensor_type;location;lat;lon;timestamp;temperature;humidity
65038;DHT22;51605;47.040;15.294;2022-10-22T00:02:11;23.00;58.70
65038;DHT22;51605;47.040;15.294;2022-10-22T00:04:40;23.00;58.70
65038;DHT22;51605;47.040;15.294;2022-10-22T00:07:06;23.10;58.70
65038;DHT22;51605;47.040;15.294;2022-10-22T00:09:31;23.10;58.70
65038;DHT22;51605;47.040;15.294;2022-10-22T00:11:57;23.10;58.60
65038;DHT22;51605;47.040;15.294;2022-10-22T00:14:22;23.10;58.70
65038;DHT22;51605;47.040;15.294;2022-10-22T00:16:48;23.10;58.60
65038;DHT22;51605;47.040;15.294;2022-10-22T00:19:14;23.10;58.70
65038;DHT22;51605;47.040;15.294;2022-10-22T00:21:39;23.10;58.70
65038;DHT22;51605;47.040;15.294;2022-10-22T00:24:05;23.10;58.70
65038;DHT22;51605;47.040;15.294;2022-10-22T00:26:31;23.10;58.60
65038;DHT22;51605;47.040;15.294;2022-10-22T00:28:57;23.10;58.60
65038;DHT22;51605;47.040;15.294;2022-10-22T00:31:24;23.10;58.60
65038;DHT22;51605;47.040;15.294;2022-10-22T00:33:49;23.00;58.60
65038;DHT22;51605;47.040;15.294;2022-10-22T00:36:15;23.00;58.60
65038;DHT22;51605;47.040;15.294;2022-10-22T00:38:41;23.10;58.70
65038;DHT22;51605;47.040;15.294;2022-10-22T00:41:07;23.00;58.60
65038;DHT22;51605;47.040;15.294;2022-10-22T00:43:33;23.10;58.60
65038;DHT22;51605;47.040;15.294;2022-10-22T00:45:59;23.10;58.60
65038;DHT22;51605;47.040;15.294;2022-10-22T00:48:27;23.10;58.60
65038;DHT22;51605;47.040;15.294;2022-10-22T00:50:59;23.10;58.60
65038;DHT22;51605;47.040;15.294;2022-10-22T00:53:33;23.10;58.70
65038;DHT22;51605;47.040;15.294;2022-10-22T00:56:00;23.00;58.60
65038;DHT22;51605;47.040;15.294;2022-10-22T00:58:29;23.10;58.60
65038;DHT22;51605;47.040;15.294;2022-10-22T01:00:56;23.10;58.60
65038;DHT22;51605;47.040;15.294;2022-10-22T01:03:22;23.00;58.60
65038;DHT22;51605;47.040;15.294;2022-10-22T01:05:57;23.00;58.60
65038;DHT22;51605;47.040;15.294;2022-10-22T01:16:26;23.00;58.50
65038;DHT22;51605;47.040;15.294;2022-10-22T01:21:56;23.00;58.50
65038;DHT22;51605;47.040;15.294;2022-10-22T01:30:00;23.00;58.50
65038;DHT22;51605;47.040;15.294;2022-10-22T01:32:31;23.10;58.50
65038;DHT22;51605;47.040;15.294;2022-10-22T01:35:03;23.00;58.50
65038;DHT22;51605;47.040;15.294;2022-10-22T01:37:33;23.00;58.50
65038;DHT22;51605;47.040;15.294;2022-10-22T01:40:01;23.00;58.50
65038;DHT22;51605;47.040;15.294;2022-10-22T01:42:27;23.00;58.50
65038;DHT22;51605;47.040;15.294;2022-10-22T01:44:53;23.10;58.50
65038;DHT22;51605;47.040;15.294;2022-10-22T01:53:21;23.00;58.40
65038;DHT22;51605;47.040;15.294;2022-10-22T02:01:57;23.00;58.50
65038;DHT22;51605;47.040;15.294;2022-10-22T02:06:54;23.00;58.50
65038;DHT22;51605;47.040;15.294;2022-10-22T02:09:21;23.00;58.60
65038;DHT22;51605;47.040;15.294;2022-10-22T02:11:49;23.00;58.60
65038;DHT22;51605;47.040;15.294;2022-10-22T02:14:16;23.00;58.70
65038;DHT22;51605;47.040;15.294;2022-10-22T02:16:45;23.00;58.70
65038;DHT22;51605;47.040;15.294;2022-10-22T02:19:32;22.90;58.70
65038;DHT22;51605;47.040;15.294;2022-10-22T02:22:00;22.90;58.80
65038;DHT22;51605;47.040;15.294;2022-10-22T02:24:26;22.90;58.70
65038;DHT22;51605;47.040;15.294;2022-10-22T02:30:07;22.90;58.80
65038;DHT22;51605;47.040;15.294;2022-10-22T02:32:44;22.90;58.80
65038;DHT22;51605;47.040;15.294;2022-10-22T02:35:16;22.90;58.80
65038;DHT22;51605;47.040;15.294;2022-10-22T02:37:43;22.90;58.80
65038;DHT22;51605;47.040;15.294;2022-10-22T02:40:09;23.00;58.80
65038;DHT22;51605;47.040;15.294;2022-10-22T02:42:36;22.90;58.80
65038;DHT22;51605;47.040;15.294;2022-10-22T02:45:03;22.90;58.80
65038;DHT22;51605;47.040;15.294;2022-10-22T02:47:29;22.90;58.80
65038;DHT22;51605;47.040;15.294;2022-10-22T02:49:54;22.90;58.70
65038;DHT22;51605;47.040;15.294;2022-10-22T02:52:20;23.00;58.60
65038;DHT22;51605;47.040;15.294;2022-10-22T02:54:46;23.00;58.70
65038;DHT22;51605;47.040;15.294;2022-10-22T02:57:11;23.00;58.60
65038;DHT22;51605;47.040;15.294;2022-10-22T02:59:37;23.00;58.60
65038;DHT22;51605;47.040;15.294;2022-10-22T03:02:02;23.00;58.50
65038;DHT22;51605;47.040;15.294;2022-10-22T03:04:28;23.00;58.40
65038;DHT22;51605;47.040;15.294;2022-10-22T03:06:54;23.00;58.40
65038;DHT22;51605;47.040;15.294;2022-10-22T03:09:19;23.00;58.50
65038;DHT22;51605;47.040;15.294;2022-10-22T03:11:45;23.00;58.50
65038;DHT22;51605;47.040;15.294;2022-10-22T03:14:11;23.00;58.30
65038;DHT22;51605;47.040;15.294;2022-10-22T03:16:37;23.10;59.00
65038;DHT22;51605;47.040;15.294;2022-10-22T03:19:03;23.00;58.30
65038;DHT22;51605;47.040;15.294;2022-10-22T03:22:05;23.00;58.30
65038;DHT22;51605;47.040;15.294;2022-10-22T03:24:28;23.00;58.30
65038;DHT22;51605;47.040;15.294;2022-10-22T03:26:54;23.00;58.30
65038;DHT22;51605;47.040;15.294;2022-10-22T03:29:21;23.00;58.30
65038;DHT22;51605;47.040;15.294;2022-10-22T03:31:47;23.00;58.30
65038;DHT22;51605;47.040;15.294;2022-10-22T03:34:13;23.00;58.30
65038;DHT22;51605;47.040;15.294;2022-10-22T03:36:39;23.10;58.40
65038;DHT22;51605;47.040;15.294;2022-10-22T03:39:06;23.00;58.30
65038;DHT22;51605;47.040;15.294;2022-10-22T03:41:33;23.00;58.30
65038;DHT22;51605;47.040;15.294;2022-10-22T03:44:00;23.00;58.30
65038;DHT22;51605;47.040;15.294;2022-10-22T03:46:27;23.00;58.30
65038;DHT22;51605;47.040;15.294;2022-10-22T03:48:53;23.00;58.30
65038;DHT22;51605;47.040;15.294;2022-10-22T03:51:18;23.00;58.30
65038;DHT22;51605;47.040;15.294;2022-10-22T03:53:44;23.00;58.30
65038;DHT22;51605;47.040;15.294;2022-10-22T03:56:11;23.00;58.30
65038;DHT22;51605;47.040;15.294;2022-10-22T03:58:38;23.00;58.30
65038;DHT22;51605;47.040;15.294;2022-10-22T04:01:08;23.00;58.40
65038;DHT22;51605;47.040;15.294;2022-10-22T04:03:35;23.00;58.50
65038;DHT22;51605;47.040;15.294;2022-10-22T04:06:05;23.00;58.40
65038;DHT22;51605;47.040;15.294;2022-10-22T04:08:32;23.00;58.40
65038;DHT22;51605;47.040;15.294;2022-10-22T04:10:57;23.00;58.40
65038;DHT22;51605;47.040;15.294;2022-10-22T04:13:23;23.00;58.40
65038;DHT22;51605;47.040;15.294;2022-10-22T04:15:49;23.00;58.50
65038;DHT22;51605;47.040;15.294;2022-10-22T04:18:17;23.00;58.40
65038;DHT22;51605;47.040;15.294;2022-10-22T04:20:43;23.00;58.40
65038;DHT22;51605;47.040;15.294;2022-10-22T04:23:08;23.00;58.50
65038;DHT22;51605;47.040;15.294;2022-10-22T04:25:34;23.00;58.50
65038;DHT22;51605;47.040;15.294;2022-10-22T04:28:00;23.00;58.50
65038;DHT22;51605;47.040;15.294;2022-10-22T04:30:26;23.00;58.30
65038;DHT22;51605;47.040;15.294;2022-10-22T04:32:52;23.00;58.30
65038;DHT22;51605;47.040;15.294;2022-10-22T04:35:17;23.00;58.30
65038;DHT22;51605;47.040;15.294;2022-10-22T04:37:43;23.00;59.40
65038;DHT22;51605;47.040;15.294;2022-10-22T04:40:09;23.00;58.40
65038;DHT22;51605;47.040;15.294;2022-10-22T04:42:35;23.00;58.40
65038;DHT22;51605;47.040;15.294;2022-10-22T04:45:01;23.00;58.30
65038;DHT22;51605;47.040;15.294;2022-10-22T04:47:26;23.00;58.30
65038;DHT22;51605;47.040;15.294;2022-10-22T04:49:52;23.00;58.30
65038;DHT22;51605;47.040;15.294;2022-10-22T04:52:17;23.00;58.30
65038;DHT22;51605;47.040;15.294;2022-10-22T04:54:43;23.00;58.40
65038;DHT22;51605;47.040;15.294;2022-10-22T04:57:09;23.00;59.40
65038;DHT22;51605;47.040;15.294;2022-10-22T04:59:34;23.00;58.50
65038;DHT22;51605;47.040;15.294;2022-10-22T05:02:00;23.00;58.40
65038;DHT22;51605;47.040;15.294;2022-10-22T05:04:26;23.00;58.40
65038;DHT22;51605;47.040;15.294;2022-10-22T05:06:51;23.00;58.40
65038;DHT22;51605;47.040;15.294;2022-10-22T05:09:19;23.00;58.40
65038;DHT22;51605;47.040;15.294;2022-10-22T05:11:47;23.00;58.50
65038;DHT22;51605;47.040;15.294;2022-10-22T05:14:15;23.00;58.50
65038;DHT22;51605;47.040;15.294;2022-10-22T05:16:42;23.00;59.40
65038;DHT22;51605;47.040;15.294;2022-10-22T05:19:11;23.00;58.50
65038;DHT22;51605;47.040;15.294;2022-10-22T05:21:38;23.00;58.50
65038;DHT22;51605;47.040;15.294;2022-10-22T05:24:04;23.00;58.50
65038;DHT22;51605;47.040;15.294;2022-10-22T05:26:30;22.90;58.40
65038;DHT22;51605;47.040;15.294;2022-10-22T05:28:56;23.00;58.50
65038;DHT22;51605;47.040;15.294;2022-10-22T05:31:22;23.00;58.50
65038;DHT22;51605;47.040;15.294;2022-10-22T05:33:48;22.90;58.60
65038;DHT22;51605;47.040;15.294;2022-10-22T05:36:16;22.90;58.60
65038;DHT22;51605;47.040;15.294;2022-10-22T05:38:43;22.90;59.60
65038;DHT22;51605;47.040;15.294;2022-10-22T05:41:17;23.00;58.70
65038;DHT22;51605;47.040;15.294;2022-10-22T05:43:43;23.00;58.70
65038;DHT22;51605;47.040;15.294;2022-10-22T05:46:20;22.90;58.70
65038;DHT22;51605;47.040;15.294;2022-10-22T05:48:57;22.90;58.80
65038;DHT22;51605;47.040;15.294;2022-10-22T05:51:24;22.90;58.80
65038;DHT22;51605;47.040;15.294;2022-10-22T05:53:59;22.90;58.80
65038;DHT22;51605;47.040;15.294;2022-10-22T05:56:26;22.90;58.70
65038;DHT22;51605;47.040;15.294;2022-10-22T05:58:52;22.90;58.80
65038;DHT22;51605;47.040;15.294;2022-10-22T06:01:30;22.90;58.80
65038;DHT22;51605;47.040;15.294;2022-10-22T06:03:59;22.90;58.70
65038;DHT22;51605;47.040;15.294;2022-10-22T06:06:34;22.90;58.60
65038;DHT22;51605;47.040;15.294;2022-10-22T06:09:14;22.90;58.50
65038;DHT22;51605;47.040;15.294;2022-10-22T06:11:41;22.90;58.40
65038;DHT22;51605;47.040;15.294;2022-10-22T06:14:08;22.90;58.30
65038;DHT22;51605;47.040;15.294;2022-10-22T06:16:34;22.90;58.20
65038;DHT22;51605;47.040;15.294;2022-10-22T06:19:00;22.90;58.30
65038;DHT22;51605;47.040;15.294;2022-10-22T06:21:30;22.90;58.20
65038;DHT22;51605;47.040;15.294;2022-10-22T06:23:57;22.90;58.20
65038;DHT22;51605;47.040;15.294;2022-10-22T06:26:23;22.90;58.40
65038;DHT22;51605;47.040;15.294;2022-10-22T06:28:49;22.90;58.60
65038;DHT22;51605;47.040;15.294;2022-10-22T06:31:14;22.90;58.70
65038;DHT22;51605;47.040;15.294;2022-10-22T06:33:40;22.90;58.70
65038;DHT22;51605;47.040;15.294;2022-10-22T06:36:14;22.90;58.60
65038;DHT22;51605;47.040;15.294;2022-10-22T06:38:40;22.90;58.60
65038;DHT22;51605;47.040;15.294;2022-10-22T06:41:09;22.90;58.50
65038;DHT22;51605;47.040;15.294;2022-10-22T06:43:35;22.90;58.40
65038;DHT22;51605;47.040;15.294;2022-10-22T06:46:03;22.90;58.20
65038;DHT22;51605;47.040;15.294;2022-10-22T06:48:30;22.90;58.20
65038;DHT22;51605;47.040;15.294;2022-10-22T06:50:55;22.90;57.90
65038;DHT22;51605;47.040;15.294;2022-10-22T06:53:25;22.90;57.90
65038;DHT22;51605;47.040;15.294;2022-10-22T06:55:50;23.00;57.90
65038;DHT22;51605;47.040;15.294;2022-10-22T06:58:16;22.90;57.90
65038;DHT22;51605;47.040;15.294;2022-10-22T07:00:42;22.90;57.80
65038;DHT22;51605;47.040;15.294;2022-10-22T07:03:12;23.00;58.00
65038;DHT22;51605;47.040;15.294;2022-10-22T07:05:38;23.00;57.90
65038;DHT22;51605;47.040;15.294;2022-10-22T07:08:04;23.00;57.80
65038;DHT22;51605;47.040;15.294;2022-10-22T07:10:30;22.90;57.80
65038;DHT22;51605;47.040;15.294;2022-10-22T07:12:55;23.00;58.00
65038;DHT22;51605;47.040;15.294;2022-10-22T07:15:21;23.00;58.00
65038;DHT22;51605;47.040;15.294;2022-10-22T07:17:47;23.00;58.00
65038;DHT22;51605;47.040;15.294;2022-10-22T07:20:13;23.00;58.30
65038;DHT22;51605;47.040;15.294;2022-10-22T07:22:38;22.90;58.40
65038;DHT22;51605;47.040;15.294;2022-10-22T07:25:04;23.00;58.20
65038;DHT22;51605;47.040;15.294;2022-10-22T07:27:35;22.90;58.20
65038;DHT22;51605;47.040;15.294;2022-10-22T07:30:00;23.00;59.20
65038;DHT22;51605;47.040;15.294;2022-10-22T07:32:27;23.00;59.20
65038;DHT22;51605;47.040;15.294;2022-10-22T07:34:52;23.00;59.80
65038;DHT22;51605;47.040;15.294;2022-10-22T07:37:18;23.00;60.00
65038;DHT22;51605;47.040;15.294;2022-10-22T07:39:47;23.00;59.90
65038;DHT22;51605;47.040;15.294;2022-10-22T07:42:13;23.00;60.20
65038;DHT22;51605;47.040;15.294;2022-10-22T07:44:38;23.10;60.30
65038;DHT22;51605;47.040;15.294;2022-10-22T07:47:04;23.10;60.30
65038;DHT22;51605;47.040;15.294;2022-10-22T07:49:30;23.10;60.20
65038;DHT22;51605;47.040;15.294;2022-10-22T07:51:55;23.10;60.30
65038;DHT22;51605;47.040;15.294;2022-10-22T07:54:22;23.10;60.30
65038;DHT22;51605;47.040;15.294;2022-10-22T07:56:47;23.10;60.20
65038;DHT22;51605;47.040;15.294;2022-10-22T07:59:13;23.10;60.40
65038;DHT22;51605;47.040;15.294;2022-10-22T08:01:39;23.10;60.70
65038;DHT22;51605;47.040;15.294;2022-10-22T08:04:04;23.10;60.50
65038;DHT22;51605;47.040;15.294;2022-10-22T08:06:33;23.10;59.80
65038;DHT22;51605;47.040;15.294;2022-10-22T08:08:59;23.10;60.00
65038;DHT22;51605;47.040;15.294;2022-10-22T08:11:25;23.10;60.10
65038;DHT22;51605;47.040;15.294;2022-10-22T08:13:52;23.10;60.30
65038;DHT22;51605;47.040;15.294;2022-10-22T08:16:17;23.10;60.40
65038;DHT22;51605;47.040;15.294;2022-10-22T08:18:43;23.10;60.40
65038;DHT22;51605;47.040;15.294;2022-10-22T08:21:12;23.10;60.10
65038;DHT22;51605;47.040;15.294;2022-10-22T08:23:38;23.10;60.00
65038;DHT22;51605;47.040;15.294;2022-10-22T08:26:04;23.10;60.00
65038;DHT22;51605;47.040;15.294;2022-10-22T08:28:30;23.10;59.90
65038;DHT22;51605;47.040;15.294;2022-10-22T08:31:04;23.10;59.90
65038;DHT22;51605;47.040;15.294;2022-10-22T08:33:30;23.10;59.80
65038;DHT22;51605;47.040;15.294;2022-10-22T08:35:56;23.10;59.80
65038;DHT22;51605;47.040;15.294;2022-10-22T08:38:21;23.10;59.80
65038;DHT22;51605;47.040;15.294;2022-10-22T08:40:53;23.10;59.70
65038;DHT22;51605;47.040;15.294;2022-10-22T08:51:12;23.00;59.60
65038;DHT22;51605;47.040;15.294;2022-10-22T08:53:59;23.00;59.60
65038;DHT22;51605;47.040;15.294;2022-10-22T08:56:30;23.00;59.60
65038;DHT22;51605;47.040;15.294;2022-10-22T08:59:25;23.00;59.50
65038;DHT22;51605;47.040;15.294;2022-10-22T09:01:53;23.00;59.50
65038;DHT22;51605;47.040;15.294;2022-10-22T09:04:25;23.00;59.60
65038;DHT22;51605;47.040;15.294;2022-10-22T09:06:58;23.00;60.00
65038;DHT22;51605;47.040;15.294;2022-10-22T09:09:32;23.00;59.70
65038;DHT22;51605;47.040;15.294;2022-10-22T09:12:00;23.00;59.50
65038;DHT22;51605;47.040;15.294;2022-10-22T09:14:30;23.00;59.40
65038;DHT22;51605;47.040;15.294;2022-10-22T09:17:19;23.00;59.40
65038;DHT22;51605;47.040;15.294;2022-10-22T09:20:11;23.00;59.20
65038;DHT22;51605;47.040;15.294;2022-10-22T09:22:45;23.10;59.40
65038;DHT22;51605;47.040;15.294;2022-10-22T09:25:26;23.10;59.20
65038;DHT22;51605;47.040;15.294;2022-10-22T09:27:52;23.10;59.20
65038;DHT22;51605;47.040;15.294;2022-10-22T09:30:30;23.10;59.10
65038;DHT22;51605;47.040;15.294;2022-10-22T09:33:05;23.10;59.20
65038;DHT22;51605;47.040;15.294;2022-10-22T09:38:07;23.10;59.30
65038;DHT22;51605;47.040;15.294;2022-10-22T09:40:45;23.10;59.40
65038;DHT22;51605;47.040;15.294;2022-10-22T09:43:12;23.10;59.60
65038;DHT22;51605;47.040;15.294;2022-10-22T09:45:39;23.00;59.60
65038;DHT22;51605;47.040;15.294;2022-10-22T09:48:18;23.10;59.70
65038;DHT22;51605;47.040;15.294;2022-10-22T09:50:45;23.00;59.80
65038;DHT22;51605;47.040;15.294;2022-10-22T09:53:21;23.00;59.80
65038;DHT22;51605;47.040;15.294;2022-10-22T09:55:56;23.00;59.80
65038;DHT22;51605;47.040;15.294;2022-10-22T09:58:22;23.00;59.80
65038;DHT22;51605;47.040;15.294;2022-10-22T10:00:53;23.00;59.80
65038;DHT22;51605;47.040;15.294;2022-10-22T10:03:25;23.00;59.80
65038;DHT22;51605;47.040;15.294;2022-10-22T10:05:56;23.00;59.80
65038;DHT22;51605;47.040;15.294;2022-10-22T10:08:23;23.00;59.70
65038;DHT22;51605;47.040;15.294;2022-10-22T10:11:10;23.00;59.70
65038;DHT22;51605;47.040;15.294;2022-10-22T10:14:17;23.00;59.50
65038;DHT22;51605;47.040;15.294;2022-10-22T10:22:29;23.10;59.70
65038;DHT22;51605;47.040;15.294;2022-10-22T10:25:02;23.00;59.50
65038;DHT22;51605;47.040;15.294;2022-10-22T10:27:39;23.10;59.40
65038;DHT22;51605;47.040;15.294;2022-10-22T10:30:19;23.00;59.40
65038;DHT22;51605;47.040;15.294;2022-10-22T10:41:03;23.00;60.80
65038;DHT22;51605;47.040;15.294;2022-10-22T10:48:59;23.10;61.80
65038;DHT22;51605;47.040;15.294;2022-10-22T10:54:15;23.30;62.70
65038;DHT22;51605;47.040;15.294;2022-10-22T10:59:39;23.60;63.20
65038;DHT22;51605;47.040;15.294;2022-10-22T11:05:02;23.80;63.60
65038;DHT22;51605;47.040;15.294;2022-10-22T11:08:08;23.90;63.90
65038;DHT22;51605;47.040;15.294;2022-10-22T11:13:32;24.10;63.80
65038;DHT22;51605;47.040;15.294;2022-10-22T11:18:55;24.20;63.60
65038;DHT22;51605;47.040;15.294;2022-10-22T11:21:44;24.30;63.40
65038;DHT22;51605;47.040;15.294;2022-10-22T11:24:36;24.40;63.40
65038;DHT22;51605;47.040;15.294;2022-10-22T11:30:13;24.50;63.20
65038;DHT22;51605;47.040;15.294;2022-10-22T11:32:42;24.50;63.00
65038;DHT22;51605;47.040;15.294;2022-10-22T11:35:23;24.60;62.80
65038;DHT22;51605;47.040;15.294;2022-10-22T11:37:50;24.60;62.90
65038;DHT22;51605;47.040;15.294;2022-10-22T11:40:29;24.60;62.80
65038;DHT22;51605;47.040;15.294;2022-10-22T11:43:05;24.70;62.80
65038;DHT22;51605;47.040;15.294;2022-10-22T11:45:41;24.60;62.70
65038;DHT22;51605;47.040;15.294;2022-10-22T11:50:55;24.60;62.60
65038;DHT22;51605;47.040;15.294;2022-10-22T11:55:57;24.60;62.40
65038;DHT22;51605;47.040;15.294;2022-10-22T12:11:44;24.20;62.00
65038;DHT22;51605;47.040;15.294;2022-10-22T12:14:26;24.10;61.90
65038;DHT22;51605;47.040;15.294;2022-10-22T12:19:23;24.00;62.10
65038;DHT22;51605;47.040;15.294;2022-10-22T12:21:59;24.00;62.20
65038;DHT22;51605;47.040;15.294;2022-10-22T12:24:31;23.90;62.20
65038;DHT22;51605;47.040;15.294;2022-10-22T12:26:58;23.90;62.40
65038;DHT22;51605;47.040;15.294;2022-10-22T12:29:24;23.80;62.50
65038;DHT22;51605;47.040;15.294;2022-10-22T12:31:51;23.80;62.80
65038;DHT22;51605;47.040;15.294;2022-10-22T12:34:21;23.80;63.10
65038;DHT22;51605;47.040;15.294;2022-10-22T12:36:51;23.80;63.10
65038;DHT22;51605;47.040;15.294;2022-10-22T12:39:35;23.80;63.40
65038;DHT22;51605;47.040;15.294;2022-10-22T12:42:04;23.80;63.40
65038;DHT22;51605;47.040;15.294;2022-10-22T12:44:31;23.80;63.40
65038;DHT22;51605;47.040;15.294;2022-10-22T12:46:57;23.70;63.80
65038;DHT22;51605;47.040;15.294;2022-10-22T12:49:35;23.70;63.70
65038;DHT22;51605;47.040;15.294;2022-10-22T12:52:05;23.70;63.50
65038;DHT22;51605;47.040;15.294;2022-10-22T12:54:33;23.70;63.40
65038;DHT22;51605;47.040;15.294;2022-10-22T12:56:59;23.70;63.30
65038;DHT22;51605;47.040;15.294;2022-10-22T12:59:32;23.60;63.30
65038;DHT22;51605;47.040;15.294;2022-10-22T13:01:59;23.60;63.20
65038;DHT22;51605;47.040;15.294;2022-10-22T13:09:39;23.50;63.20
65038;DHT22;51605;47.040;15.294;2022-10-22T13:12:06;23.50;63.00
65038;DHT22;51605;47.040;15.294;2022-10-22T13:14:37;23.50;63.00
65038;DHT22;51605;47.040;15.294;2022-10-22T13:19:39;23.50;63.00
65038;DHT22;51605;47.040;15.294;2022-10-22T13:24:49;23.50;63.40
65038;DHT22;51605;47.040;15.294;2022-10-22T13:27:15;23.50;63.30
65038;DHT22;51605;47.040;15.294;2022-10-22T13:29:41;23.50;63.40
65038;DHT22;51605;47.040;15.294;2022-10-22T13:34:51;23.50;63.70
65038;DHT22;51605;47.040;15.294;2022-10-22T13:37:17;23.50;63.70
65038;DHT22;51605;47.040;15.294;2022-10-22T13:39:43;23.60;63.80
65038;DHT22;51605;47.040;15.294;2022-10-22T13:42:12;23.60;63.80
65038;DHT22;51605;47.040;15.294;2022-10-22T13:44:37;23.70;64.10
65038;DHT22;51605;47.040;15.294;2022-10-22T13:47:07;23.80;64.00
65038;DHT22;51605;47.040;15.294;2022-10-22T13:49:35;23.90;64.00
65038;DHT22;51605;47.040;15.294;2022-10-22T13:52:00;23.90;63.90
65038;DHT22;51605;47.040;15.294;2022-10-22T13:54:26;24.00;64.00
65038;DHT22;51605;47.040;15.294;2022-10-22T13:56:52;24.00;64.00
65038;DHT22;51605;47.040;15.294;2022-10-22T13:59:18;24.10;63.90
65038;DHT22;51605;47.040;15.294;2022-10-22T14:01:44;24.10;63.80
65038;DHT22;51605;47.040;15.294;2022-10-22T14:04:11;24.10;63.40
65038;DHT22;51605;47.040;15.294;2022-10-22T14:06:38;24.10;63.50
65038;DHT22;51605;47.040;15.294;2022-10-22T14:09:06;24.20;63.50
65038;DHT22;51605;47.040;15.294;2022-10-22T14:11:35;24.20;63.60
65038;DHT22;51605;47.040;15.294;2022-10-22T14:14:01;24.20;63.70
65038;DHT22;51605;47.040;15.294;2022-10-22T14:16:33;24.10;63.70
65038;DHT22;51605;47.040;15.294;2022-10-22T14:19:00;24.10;63.60
65038;DHT22;51605;47.040;15.294;2022-10-22T14:21:29;24.00;63.70
65038;DHT22;51605;47.040;15.294;2022-10-22T14:23:57;24.00;64.00
65038;DHT22;51605;47.040;15.294;2022-10-22T14:26:26;24.00;64.00
65038;DHT22;51605;47.040;15.294;2022-10-22T14:28:53;24.00;64.10
65038;DHT22;51605;47.040;15.294;2022-10-22T14:31:19;23.90;64.10
65038;DHT22;51605;47.040;15.294;2022-10-22T14:33:45;23.90;64.10
65038;DHT22;51605;47.040;15.294;2022-10-22T14:36:15;23.90;64.20
65038;DHT22;51605;47.040;15.294;2022-10-22T14:38:47;23.90;64.30
65038;DHT22;51605;47.040;15.294;2022-10-22T14:41:24;23.80;64.40
65038;DHT22;51605;47.040;15.294;2022-10-22T14:43:51;23.80;64.50
65038;DHT22;51605;47.040;15.294;2022-10-22T14:46:17;23.80;64.40
65038;DHT22;51605;47.040;15.294;2022-10-22T14:48:43;23.80;64.50
65038;DHT22;51605;47.040;15.294;2022-10-22T14:51:14;23.80;64.40
65038;DHT22;51605;47.040;15.294;2022-10-22T14:53:40;23.80;64.60
65038;DHT22;51605;47.040;15.294;2022-10-22T14:56:08;23.80;64.70
65038;DHT22;51605;47.040;15.294;2022-10-22T14:58:35;23.80;65.00
65038;DHT22;51605;47.040;15.294;2022-10-22T15:01:01;23.70;65.00
65038;DHT22;51605;47.040;15.294;2022-10-22T15:03:27;23.70;65.00
65038;DHT22;51605;47.040;15.294;2022-10-22T15:05:52;23.70;64.90
65038;DHT22;51605;47.040;15.294;2022-10-22T15:08:20;23.70;65.10
65038;DHT22;51605;47.040;15.294;2022-10-22T15:10:56;23.70;65.60
65038;DHT22;51605;47.040;15.294;2022-10-22T15:13:22;23.70;65.90
65038;DHT22;51605;47.040;15.294;2022-10-22T15:15:47;23.70;65.70
65038;DHT22;51605;47.040;15.294;2022-10-22T15:18:13;23.70;65.70
65038;DHT22;51605;47.040;15.294;2022-10-22T15:20:38;23.70;65.90
65038;DHT22;51605;47.040;15.294;2022-10-22T15:23:04;23.70;65.50
65038;DHT22;51605;47.040;15.294;2022-10-22T15:25:29;23.70;65.60
65038;DHT22;51605;47.040;15.294;2022-10-22T15:27:55;23.70;65.30
65038;DHT22;51605;47.040;15.294;2022-10-22T15:30:21;23.70;65.10
65038;DHT22;51605;47.040;15.294;2022-10-22T15:32:46;23.70;65.30
65038;DHT22;51605;47.040;15.294;2022-10-22T15:35:12;23.70;65.10
65038;DHT22;51605;47.040;15.294;2022-10-22T15:37:37;23.70;65.50
65038;DHT22;51605;47.040;15.294;2022-10-22T15:40:05;23.70;65.80
65038;DHT22;51605;47.040;15.294;2022-10-22T15:42:32;23.70;65.70
65038;DHT22;51605;47.040;15.294;2022-10-22T15:44:57;23.70;65.40
65038;DHT22;51605;47.040;15.294;2022-10-22T15:47:24;23.70;65.50
65038;DHT22;51605;47.040;15.294;2022-10-22T15:49:53;23.70;65.30
65038;DHT22;51605;47.040;15.294;2022-10-22T15:52:19;23.70;65.30
65038;DHT22;51605;47.040;15.294;2022-10-22T15:54:46;23.70;65.30
65038;DHT22;51605;47.040;15.294;2022-10-22T15:57:11;23.70;65.20
65038;DHT22;51605;47.040;15.294;2022-10-22T15:59:37;23.60;65.10
65038;DHT22;51605;47.040;15.294;2022-10-22T16:02:03;23.60;65.10
65038;DHT22;51605;47.040;15.294;2022-10-22T16:04:28;23.60;65.00
65038;DHT22;51605;47.040;15.294;2022-10-22T16:06:55;23.60;65.20
65038;DHT22;51605;47.040;15.294;2022-10-22T16:09:23;23.60;65.00
65038;DHT22;51605;47.040;15.294;2022-10-22T16:11:50;23.60;65.00
65038;DHT22;51605;47.040;15.294;2022-10-22T16:14:17;23.50;65.00
65038;DHT22;51605;47.040;15.294;2022-10-22T16:16:46;23.50;65.00
65038;DHT22;51605;47.040;15.294;2022-10-22T16:19:14;23.50;65.00
65038;DHT22;51605;47.040;15.294;2022-10-22T16:21:40;23.50;64.90
65038;DHT22;51605;47.040;15.294;2022-10-22T16:24:07;23.50;64.90
65038;DHT22;51605;47.040;15.294;2022-10-22T16:26:34;23.50;64.80
65038;DHT22;51605;47.040;15.294;2022-10-22T16:29:00;23.50;64.80
65038;DHT22;51605;47.040;15.294;2022-10-22T16:31:25;23.50;64.70
65038;DHT22;51605;47.040;15.294;2022-10-22T16:33:51;23.50;65.10
65038;DHT22;51605;47.040;15.294;2022-10-22T16:36:18;23.50;64.60
65038;DHT22;51605;47.040;15.294;2022-10-22T16:38:45;23.50;64.60
65038;DHT22;51605;47.040;15.294;2022-10-22T16:41:13;23.50;64.50
65038;DHT22;51605;47.040;15.294;2022-10-22T16:43:40;23.50;64.50
65038;DHT22;51605;47.040;15.294;2022-10-22T16:46:06;23.40;64.40
65038;DHT22;51605;47.040;15.294;2022-10-22T16:48:32;23.40;64.40
65038;DHT22;51605;47.040;15.294;2022-10-22T16:50:58;23.50;64.50
65038;DHT22;51605;47.040;15.294;2022-10-22T16:53:28;23.40;64.30
65038;DHT22;51605;47.040;15.294;2022-10-22T16:55:54;23.40;64.30
65038;DHT22;51605;47.040;15.294;2022-10-22T16:58:20;23.40;64.30
65038;DHT22;51605;47.040;15.294;2022-10-22T17:00:45;23.40;64.30
65038;DHT22;51605;47.040;15.294;2022-10-22T17:03:11;23.40;64.20
65038;DHT22;51605;47.040;15.294;2022-10-22T17:05:36;23.40;64.20
65038;DHT22;51605;47.040;15.294;2022-10-22T17:08:02;23.40;64.20
65038;DHT22;51605;47.040;15.294;2022-10-22T17:10:28;23.40;64.20
65038;DHT22;51605;47.040;15.294;2022-10-22T17:12:53;23.40;64.10
65038;DHT22;51605;47.040;15.294;2022-10-22T17:15:19;23.40;64.10
65038;DHT22;51605;47.040;15.294;2022-10-22T17:17:44;23.40;64.00
65038;DHT22;51605;47.040;15.294;2022-10-22T17:20:13;23.40;64.00